createdAt,value
2018-09-09T00:01:28.604Z,13.86
2018-09-09T00:03:57.096Z,13.74
2018-09-09T00:06:25.547Z,13.71
2018-09-09T00:08:53.973Z,13.65
2018-09-09T00:11:22.473Z,13.53
2018-09-09T00:13:50.882Z,13.42
2018-09-09T00:16:19.329Z,13.45
2018-09-09T00:18:47.753Z,13.38
2018-09-09T00:21:16.197Z,13.29
2018-09-09T00:23:44.604Z,13.29
2018-09-09T00:26:13.074Z,13.26
2018-09-09T00:28:41.484Z,13.19
2018-09-09T00:31:09.899Z,13.15
2018-09-09T00:33:38.302Z,13.07
2018-09-09T00:36:06.801Z,13.08
2018-09-09T00:38:35.254Z,13.02
2018-09-09T00:41:03.693Z,12.99
2018-09-09T00:43:32.139Z,13.03
2018-09-09T00:46:00.581Z,12.98
2018-09-09T00:48:28.990Z,12.90
2018-09-09T00:51:02.800Z,13.05
2018-09-09T00:53:36.314Z,13.03
2018-09-09T00:56:04.805Z,12.90
2018-09-09T00:58:33.259Z,12.77
2018-09-09T01:01:06.942Z,12.81
2018-09-09T01:03:35.372Z,12.75
2018-09-09T01:06:03.786Z,12.71
2018-09-09T01:08:32.225Z,12.61
2018-09-09T01:11:00.657Z,12.56
2018-09-09T01:13:29.045Z,12.52
2018-09-09T01:15:57.505Z,12.47
2018-09-09T01:18:25.917Z,12.38
2018-09-09T01:20:54.349Z,12.33
2018-09-09T01:23:22.792Z,12.40
2018-09-09T01:25:51.249Z,12.50
2018-09-09T01:28:19.661Z,12.65
2018-09-09T01:30:48.097Z,12.71
2018-09-09T01:33:16.516Z,12.75
2018-09-09T01:35:45.310Z,12.84
2018-09-09T01:38:13.719Z,12.89
2018-09-09T01:40:42.221Z,12.97
2018-09-09T01:43:10.646Z,13.03
2018-09-09T01:45:39.101Z,13.11
2018-09-09T01:48:07.537Z,13.13
2018-09-09T01:50:35.997Z,13.10
2018-09-09T01:53:04.802Z,13.06
2018-09-09T01:55:33.381Z,13.01
2018-09-09T01:58:01.816Z,12.97
2018-09-09T02:00:30.221Z,12.99
2018-09-09T02:02:58.673Z,13.00
2018-09-09T02:05:27.097Z,12.92
2018-09-09T02:07:55.529Z,12.90
2018-09-09T02:10:23.925Z,12.87
2018-09-09T02:12:52.333Z,12.79
2018-09-09T02:15:20.741Z,12.81
2018-09-09T02:17:49.161Z,12.82
2018-09-09T02:20:17.594Z,12.79
2018-09-09T02:22:46.052Z,12.70
2018-09-09T02:25:14.477Z,12.68
2018-09-09T02:27:42.953Z,12.69
2018-09-09T02:30:11.459Z,12.69
2018-09-09T02:32:39.874Z,12.69
2018-09-09T02:35:08.280Z,12.80
2018-09-09T02:37:36.737Z,12.84
2018-09-09T02:40:05.193Z,12.81
2018-09-09T02:42:33.657Z,12.80
2018-09-09T02:45:02.093Z,12.89
2018-09-09T02:47:30.518Z,12.89
2018-09-09T02:49:58.924Z,12.93
2018-09-09T02:52:27.344Z,12.89
2018-09-09T02:54:55.801Z,12.76
2018-09-09T02:57:24.221Z,12.70
2018-09-09T02:59:52.638Z,12.89
2018-09-09T03:02:21.086Z,12.88
2018-09-09T03:04:49.496Z,12.88
2018-09-09T03:07:17.955Z,12.94
2018-09-09T03:09:46.483Z,12.96
2018-09-09T03:12:14.926Z,13.13
2018-09-09T03:14:43.327Z,13.21
2018-09-09T03:17:11.790Z,13.18
2018-09-09T03:19:40.170Z,13.09
2018-09-09T03:22:08.588Z,13.04
2018-09-09T03:24:37.013Z,13.05
2018-09-09T03:27:05.470Z,13.05
2018-09-09T03:29:34.058Z,12.99
2018-09-09T03:32:02.604Z,12.98
2018-09-09T03:34:31.012Z,12.95
2018-09-09T03:36:59.431Z,12.87
2018-09-09T03:39:27.869Z,12.95
2018-09-09T03:41:56.308Z,12.80
2018-09-09T03:44:24.739Z,12.75
2018-09-09T03:46:53.167Z,12.67
2018-09-09T03:49:21.579Z,12.77
2018-09-09T03:51:50.074Z,12.79
2018-09-09T03:54:18.710Z,12.74
2018-09-09T03:56:47.122Z,12.73
2018-09-09T03:59:15.533Z,12.69
2018-09-09T04:01:43.950Z,12.73
2018-09-09T04:04:12.345Z,12.81
2018-09-09T04:06:40.704Z,12.85
2018-09-09T04:09:09.454Z,12.76
2018-09-09T04:11:37.842Z,12.77
2018-09-09T04:14:06.384Z,12.81
2018-09-09T04:16:34.772Z,12.86
2018-09-09T04:19:03.214Z,12.89
2018-09-09T04:21:35.400Z,12.91
2018-09-09T04:24:03.797Z,12.90
2018-09-09T04:26:32.204Z,12.89
2018-09-09T04:29:00.613Z,12.98
2018-09-09T04:31:28.990Z,12.96
2018-09-09T04:33:57.390Z,13.07
2018-09-09T04:36:25.789Z,12.95
2018-09-09T04:38:54.198Z,12.79
2018-09-09T04:41:22.569Z,12.87
2018-09-09T04:43:51.024Z,12.83
2018-09-09T04:46:19.422Z,12.71
2018-09-09T04:48:47.850Z,12.66
2018-09-09T04:51:16.260Z,12.59
2018-09-09T04:53:44.654Z,12.59
2018-09-09T04:56:13.033Z,12.60
2018-09-09T04:58:41.458Z,12.64
2018-09-09T05:01:09.952Z,12.68
2018-09-09T05:03:38.337Z,12.59
2018-09-09T05:06:06.761Z,12.57
2018-09-09T05:08:35.206Z,12.62
2018-09-09T05:11:03.618Z,12.60
2018-09-09T05:13:32.070Z,12.59
2018-09-09T05:16:00.477Z,12.71
2018-09-09T05:18:28.914Z,12.74
2018-09-09T05:20:57.288Z,12.76
2018-09-09T05:23:25.716Z,12.88
2018-09-09T05:25:54.140Z,12.93
2018-09-09T05:28:22.606Z,13.00
2018-09-09T05:30:51.129Z,13.13
2018-09-09T05:33:19.701Z,13.10
2018-09-09T05:35:48.150Z,13.21
2018-09-09T05:38:16.710Z,13.38
2018-09-09T05:42:09.721Z,13.34
2018-09-09T05:44:38.456Z,13.46
2018-09-09T05:47:07.132Z,13.62
2018-09-09T05:49:35.838Z,13.74
2018-09-09T05:52:04.547Z,13.84
2018-09-09T05:54:33.254Z,13.89
2018-09-09T05:57:01.895Z,13.96
2018-09-09T05:59:30.530Z,14.01
2018-09-09T06:01:59.203Z,14.04
2018-09-09T06:04:27.933Z,14.02
2018-09-09T06:06:56.667Z,14.01
2018-09-09T06:29:33.298Z,14.96
2018-09-09T06:32:01.721Z,15.11
2018-09-09T06:34:30.213Z,15.23
2018-09-09T06:36:59.419Z,15.32
2018-09-09T06:39:28.127Z,15.44
2018-09-09T06:41:56.830Z,15.51
2018-09-09T06:44:25.524Z,15.53
2018-09-09T06:46:54.155Z,15.67
2018-09-09T06:49:22.847Z,15.82
2018-09-09T06:51:51.988Z,15.78
2018-09-09T06:54:20.600Z,15.91
2018-09-09T06:56:49.362Z,16.04
2018-09-09T06:59:18.041Z,16.27
2018-09-09T07:01:46.738Z,16.41
2018-09-09T07:04:15.380Z,16.51
2018-09-09T07:06:44.080Z,16.62
2018-09-09T07:09:12.707Z,16.74
2018-09-09T07:11:41.493Z,16.78
2018-09-09T07:14:10.072Z,16.75
2018-09-09T07:16:38.758Z,16.78
2018-09-09T07:19:08.495Z,16.65
2018-09-09T07:21:37.286Z,16.73
2018-09-09T07:24:06.033Z,16.87
2018-09-09T07:26:34.568Z,17.00
2018-09-09T07:29:03.017Z,17.08
2018-09-09T07:31:31.428Z,17.31
2018-09-09T07:33:59.877Z,17.52
2018-09-09T07:36:28.289Z,17.67
2018-09-09T07:38:56.979Z,17.75
2018-09-09T07:41:25.586Z,17.62
2018-09-09T07:43:54.296Z,17.71
2018-09-09T07:46:22.895Z,17.75
2018-09-09T07:48:51.605Z,17.98
2018-09-09T07:51:21.385Z,18.08
2018-09-09T07:54:02.188Z,17.97
2018-09-09T07:56:30.942Z,18.00
2018-09-09T07:58:59.607Z,18.17
2018-09-09T08:01:28.355Z,18.47
2018-09-09T08:04:03.163Z,18.84
2018-09-09T08:06:31.846Z,19.14
2018-09-09T08:09:00.574Z,19.33
2018-09-09T08:11:34.382Z,19.53
2018-09-09T08:14:02.970Z,19.61
2018-09-09T08:16:31.679Z,19.57
2018-09-09T08:19:00.527Z,19.61
2018-09-09T08:21:29.225Z,19.71
2018-09-09T08:23:58.305Z,19.81
2018-09-09T08:26:27.008Z,20.04
2018-09-09T08:28:55.634Z,20.11
2018-09-09T08:31:25.414Z,20.22
2018-09-09T08:33:54.361Z,20.32
2018-09-09T08:36:22.975Z,20.54
2018-09-09T08:38:51.739Z,20.81
2018-09-09T08:41:20.450Z,20.64
2018-09-09T08:43:49.126Z,20.69
2018-09-09T08:46:17.854Z,21.00
2018-09-09T08:48:46.592Z,21.04
2018-09-09T08:51:15.462Z,20.72
2018-09-09T08:53:44.277Z,20.66
2018-09-09T08:56:12.919Z,20.99
2018-09-09T08:58:41.539Z,21.01
2018-09-09T09:01:10.250Z,21.17
2018-09-09T09:03:38.997Z,21.39
2018-09-09T09:06:07.891Z,21.17
2018-09-09T09:08:36.690Z,21.44
2018-09-09T09:11:05.482Z,21.45
2018-09-09T09:13:34.142Z,21.44
2018-09-09T09:16:02.807Z,21.34
2018-09-09T09:18:31.418Z,21.49
2018-09-09T09:21:00.078Z,21.15
2018-09-09T09:23:29.044Z,21.30
2018-09-09T09:25:57.781Z,21.09
2018-09-09T09:28:26.389Z,21.07
2018-09-09T09:30:55.232Z,21.19
2018-09-09T09:33:23.956Z,21.05
2018-09-09T09:35:53.825Z,21.04
2018-09-09T09:38:23.346Z,20.97
2018-09-09T09:40:52.554Z,21.02
2018-09-09T09:43:21.229Z,21.05
2018-09-09T09:45:49.981Z,21.04
2018-09-09T09:48:18.686Z,20.99
2018-09-09T09:50:47.380Z,20.95
2018-09-09T09:53:16.077Z,21.14
2018-09-09T09:55:44.786Z,21.21
2018-09-09T09:58:13.560Z,21.22
2018-09-09T10:00:47.483Z,21.18
2018-09-09T10:03:16.157Z,21.20
2018-09-09T10:05:44.904Z,21.07
2018-09-09T10:08:13.599Z,21.11
2018-09-09T10:10:42.321Z,21.53
2018-09-09T10:13:11.138Z,21.43
2018-09-09T10:15:40.107Z,21.38
2018-09-09T10:18:08.924Z,21.39
2018-09-09T10:20:38.247Z,21.33
2018-09-09T10:23:07.166Z,21.40
2018-09-09T10:25:35.922Z,21.62
2018-09-09T10:28:04.645Z,21.78
2018-09-09T10:30:33.378Z,21.95
2018-09-09T10:33:02.093Z,22.10
2018-09-09T10:35:30.726Z,22.22
2018-09-09T10:37:59.476Z,22.18
2018-09-09T10:40:28.237Z,22.34
2018-09-09T10:42:56.947Z,22.43
2018-09-09T10:45:25.695Z,22.46
2018-09-09T10:47:57.606Z,22.55
2018-09-09T10:50:26.300Z,22.21
2018-09-09T10:53:02.751Z,22.37
2018-09-09T10:55:35.124Z,22.52
2018-09-09T10:58:04.137Z,22.50
2018-09-09T11:00:34.175Z,22.66
2018-09-09T11:03:02.953Z,22.83
2018-09-09T11:05:31.739Z,22.98
2018-09-09T11:08:08.129Z,22.82
2018-09-09T11:10:49.303Z,22.76
2018-09-09T11:13:18.159Z,22.78
2018-09-09T11:15:47.039Z,22.56
2018-09-09T11:18:15.778Z,22.69
2018-09-09T11:20:44.403Z,23.09
2018-09-09T11:23:13.108Z,23.32
2018-09-09T11:25:41.793Z,23.51
2018-09-09T11:28:10.425Z,23.58
2018-09-09T11:30:39.075Z,23.51
2018-09-09T11:33:07.817Z,23.57
2018-09-09T11:35:40.331Z,23.76
2018-09-09T11:38:09.185Z,23.45
2018-09-09T11:40:37.849Z,23.61
2018-09-09T11:43:06.651Z,23.62
2018-09-09T11:45:35.455Z,23.42
2018-09-09T11:48:04.329Z,23.57
2018-09-09T11:50:33.065Z,23.46
2018-09-09T11:53:24.390Z,23.55
2018-09-09T11:55:53.749Z,23.78
2018-09-09T11:58:22.497Z,24.04
2018-09-09T12:00:51.882Z,24.09
2018-09-09T12:03:22.346Z,24.17
2018-09-09T12:05:52.886Z,23.97
2018-09-09T12:08:23.263Z,24.03
2018-09-09T12:10:52.090Z,23.96
2018-09-09T12:13:20.918Z,23.95
2018-09-09T12:15:49.670Z,24.01
2018-09-09T12:18:18.423Z,24.49
2018-09-09T12:20:47.634Z,24.80
2018-09-09T12:23:16.471Z,24.86
2018-09-09T12:25:45.191Z,24.99
2018-09-09T12:28:14.049Z,24.91
2018-09-09T12:30:42.844Z,25.13
2018-09-09T12:33:11.711Z,24.88
2018-09-09T12:35:40.502Z,25.11
2018-09-09T12:38:28.032Z,25.05
2018-09-09T12:40:56.531Z,25.14
2018-09-09T12:43:30.337Z,25.52
2018-09-09T12:46:04.082Z,25.28
2018-09-09T12:48:37.981Z,24.97
2018-09-09T12:51:06.537Z,25.04
2018-09-09T12:53:34.994Z,25.13
2018-09-09T12:56:03.429Z,25.33
2018-09-09T12:58:31.879Z,25.60
2018-09-09T13:01:00.316Z,25.77
2018-09-09T13:03:29.605Z,26.55
2018-09-09T13:05:58.088Z,26.50
2018-09-09T13:08:26.530Z,26.05
2018-09-09T13:10:54.979Z,26.55
2018-09-09T13:13:23.388Z,26.68
2018-09-09T13:15:51.804Z,26.73
2018-09-09T13:18:20.303Z,26.69
2018-09-09T13:20:49.815Z,27.35
2018-09-09T13:23:18.330Z,28.26
2018-09-09T13:25:46.733Z,29.24
2018-09-09T13:28:15.209Z,29.51
2018-09-09T13:30:43.674Z,29.36
2018-09-09T13:33:28.695Z,30.06
2018-09-09T13:35:57.180Z,29.63
2018-09-09T13:38:25.602Z,29.75
2018-09-09T13:40:54.021Z,30.68
2018-09-09T13:43:22.493Z,30.69
2018-09-09T13:45:51.112Z,30.07
2018-09-09T13:48:19.660Z,29.15
2018-09-09T13:50:55.808Z,29.00
2018-09-09T13:53:24.228Z,28.06
2018-09-09T13:55:52.625Z,27.61
2018-09-09T13:58:21.127Z,27.26
2018-09-09T14:00:49.670Z,27.76
2018-09-09T14:03:18.157Z,28.25
2018-09-09T14:05:46.622Z,28.39
2018-09-09T14:08:15.073Z,28.29
2018-09-09T14:10:43.502Z,28.00
2018-09-09T14:13:11.913Z,29.25
2018-09-09T14:15:40.346Z,30.22
2018-09-09T14:18:08.925Z,30.03
2018-09-09T14:20:37.381Z,30.45
2018-09-09T14:23:15.849Z,30.24
2018-09-09T14:25:44.295Z,30.93
2018-09-09T14:28:12.738Z,31.19
2018-09-09T14:30:43.897Z,30.78
2018-09-09T14:33:16.630Z,30.27
2018-09-09T14:35:46.295Z,28.85
2018-09-09T14:38:33.304Z,28.86
2018-09-09T14:41:01.794Z,28.97
2018-09-09T14:43:30.225Z,28.23
2018-09-09T14:46:09.243Z,28.05
2018-09-09T14:48:37.769Z,27.84
2018-09-09T14:51:06.372Z,28.29
2018-09-09T14:53:34.949Z,28.46
2018-09-09T14:56:03.300Z,28.12
2018-09-09T14:58:37.894Z,28.49
2018-09-09T15:01:06.432Z,28.92
2018-09-09T15:03:34.926Z,29.59
2018-09-09T15:06:03.409Z,29.20
2018-09-09T15:08:31.894Z,28.85
2018-09-09T15:11:00.355Z,28.22
2018-09-09T15:13:29.971Z,28.52
2018-09-09T15:15:58.414Z,28.43
2018-09-09T15:18:26.888Z,27.53
2018-09-09T15:20:55.306Z,27.37
2018-09-09T15:23:23.742Z,26.93
2018-09-09T15:25:52.230Z,27.43
2018-09-09T15:28:21.589Z,27.28
2018-09-09T15:30:50.557Z,26.91
2018-09-09T15:33:20.125Z,26.86
2018-09-09T15:35:49.646Z,26.92
2018-09-09T15:38:18.969Z,27.26
2018-09-09T15:40:48.785Z,27.23
2018-09-09T15:43:18.124Z,27.09
2018-09-09T15:45:47.826Z,27.00
2018-09-09T15:48:17.554Z,27.01
2018-09-09T15:50:47.117Z,27.18
2018-09-09T15:53:16.657Z,27.42
2018-09-09T15:55:46.846Z,27.05
2018-09-09T15:58:16.877Z,27.03
2018-09-09T16:00:47.090Z,26.71
2018-09-09T16:03:15.858Z,26.54
2018-09-09T16:05:44.753Z,26.40
2018-09-09T16:08:13.905Z,26.28
2018-09-09T16:10:43.479Z,26.35
2018-09-09T16:13:13.369Z,26.43
2018-09-09T16:15:42.598Z,26.05
2018-09-09T16:18:11.547Z,26.04
2018-09-09T16:20:40.785Z,25.90
2018-09-09T16:23:10.152Z,25.80
2018-09-09T16:25:39.793Z,25.58
2018-09-09T16:28:08.901Z,25.40
2018-09-09T16:30:38.856Z,25.23
2018-09-09T16:33:07.373Z,25.27
2018-09-09T16:35:36.452Z,24.95
2018-09-09T16:38:05.997Z,24.82
2018-09-09T16:40:35.714Z,24.72
2018-09-09T16:43:05.006Z,24.70
2018-09-09T16:45:34.606Z,24.64
2018-09-09T16:48:05.093Z,24.54
2018-09-09T16:50:34.129Z,24.37
2018-09-09T16:53:03.757Z,24.34
2018-09-09T16:55:33.195Z,24.25
2018-09-09T16:58:02.114Z,24.14
2018-09-09T17:00:31.046Z,24.05
2018-09-09T17:03:00.024Z,24.12
2018-09-09T17:05:30.090Z,24.09
2018-09-09T17:07:59.615Z,24.00
2018-09-09T17:10:28.593Z,23.93
2018-09-09T17:15:32.345Z,23.76
2018-09-09T17:18:02.701Z,23.59
2018-09-09T17:20:32.847Z,23.43
2018-09-09T17:23:01.763Z,23.27
2018-09-09T17:25:31.506Z,23.11
2018-09-09T17:28:04.607Z,22.97
2018-09-09T17:30:33.018Z,22.75
2018-09-09T17:33:04.145Z,22.61
2018-09-09T17:35:33.847Z,22.48
2018-09-09T17:38:03.777Z,22.35
2018-09-09T17:40:33.920Z,22.29
2018-09-09T17:43:03.366Z,22.18
2018-09-09T17:45:33.110Z,22.08
2018-09-09T17:48:01.949Z,22.02
2018-09-09T17:52:57.953Z,21.80
2018-09-09T17:55:26.363Z,21.71
2018-09-09T17:57:54.793Z,21.55
2018-09-09T18:00:23.263Z,21.47
2018-09-09T18:02:52.877Z,21.42
2018-09-09T18:05:21.326Z,21.27
2018-09-09T18:07:49.762Z,21.18
2018-09-09T18:10:18.181Z,21.04
2018-09-09T18:12:47.026Z,20.98
2018-09-09T18:15:15.429Z,20.88
2018-09-09T18:17:43.824Z,20.70
2018-09-09T18:20:12.309Z,20.61
2018-09-09T18:22:40.738Z,20.47
2018-09-09T18:25:09.203Z,20.35
2018-09-09T18:27:38.913Z,20.25
2018-09-09T18:30:07.706Z,20.13
2018-09-09T18:32:36.530Z,19.99
2018-09-09T18:35:05.457Z,19.90
2018-09-09T18:37:34.187Z,19.82
2018-09-09T18:54:28.193Z,19.47
2018-09-09T18:56:56.924Z,19.36
2018-09-09T18:59:26.026Z,19.32
2018-09-09T19:01:54.701Z,19.27
2018-09-09T19:04:23.345Z,19.24
2018-09-09T19:06:52.253Z,19.16
2018-09-09T19:09:20.982Z,19.05
2018-09-09T19:11:49.753Z,19.06
2018-09-09T19:14:18.430Z,18.96
2018-09-09T19:16:47.177Z,19.21
2018-09-09T19:19:15.861Z,19.15
2018-09-09T19:21:44.607Z,19.05
2018-09-09T19:24:16.682Z,18.97
2018-09-09T19:26:45.440Z,18.86
2018-09-09T19:29:14.069Z,18.83
2018-09-09T19:31:43.058Z,18.74
2018-09-09T19:34:14.119Z,18.59
2018-09-09T19:36:42.539Z,18.72
2018-09-09T19:39:14.706Z,18.79
2018-09-09T19:41:43.165Z,18.83
2018-09-09T19:44:11.618Z,18.87
2018-09-09T19:46:39.994Z,18.73
2018-09-09T19:49:08.465Z,18.59
2018-09-09T19:51:36.990Z,18.55
2018-09-09T19:54:05.577Z,18.42
2018-09-09T19:56:37.361Z,18.62
2018-09-09T19:59:09.379Z,18.55
2018-09-09T20:01:37.808Z,18.29
2018-09-09T20:04:06.255Z,18.32
2018-09-09T20:06:34.670Z,18.27
2018-09-09T20:09:07.928Z,18.14
2018-09-09T20:11:36.476Z,17.96
2018-09-09T20:14:05.961Z,18.05
2018-09-09T20:16:34.407Z,17.90
2018-09-09T20:19:03.165Z,17.81
2018-09-09T20:21:31.976Z,17.63
2018-09-09T20:24:05.311Z,17.51
2018-09-09T20:26:34.097Z,17.39
2018-09-09T20:29:02.821Z,17.27
2018-09-09T20:31:31.538Z,17.37
2018-09-09T20:34:00.185Z,17.23
2018-09-09T20:36:28.945Z,17.11
2018-09-09T20:38:57.789Z,17.07
2018-09-09T20:41:26.544Z,16.92
2018-09-09T20:43:55.298Z,16.92
2018-09-09T20:46:24.064Z,16.96
2018-09-09T20:48:52.880Z,16.90
2018-09-09T20:51:21.508Z,16.76
2018-09-09T20:53:50.259Z,16.73
2018-09-09T20:56:19.118Z,16.68
2018-09-09T21:04:43.798Z,16.47
2018-09-09T21:07:12.518Z,16.48
2018-09-09T21:09:41.370Z,16.34
2018-09-09T21:12:11.138Z,16.29
2018-09-09T21:14:39.910Z,16.32
2018-09-09T21:17:08.818Z,16.28
2018-09-09T21:19:37.585Z,16.17
2018-09-09T21:22:06.686Z,16.17
2018-09-09T21:24:35.484Z,16.16
2018-09-09T21:27:04.344Z,16.12
2018-09-09T21:29:33.144Z,16.20
2018-09-09T21:32:01.783Z,16.13
2018-09-09T21:34:30.654Z,16.13
2018-09-09T21:36:59.528Z,16.18
2018-09-09T21:39:28.293Z,16.10
2018-09-09T21:41:57.012Z,16.08
2018-09-09T21:44:25.928Z,15.93
2018-09-09T21:46:54.516Z,15.96
2018-09-09T21:49:23.157Z,15.93
2018-09-09T21:51:51.621Z,15.91
2018-09-09T21:54:20.043Z,15.89
2018-09-09T21:56:48.446Z,15.93
2018-09-09T21:59:16.865Z,15.83
2018-09-09T22:01:50.657Z,15.70
2018-09-09T22:04:19.107Z,15.54
2018-09-09T22:06:47.517Z,15.52
2018-09-09T22:09:15.938Z,15.44
2018-09-09T22:11:44.341Z,15.35
2018-09-09T22:14:12.811Z,15.35
2018-09-09T22:16:41.248Z,15.36
2018-09-09T22:19:09.821Z,15.28
2018-09-09T22:21:38.277Z,15.33
2018-09-09T22:24:12.702Z,15.28
2018-09-09T22:26:41.113Z,15.25
2018-09-09T22:29:09.549Z,15.22
2018-09-09T22:31:37.956Z,15.24
2018-09-09T22:34:06.495Z,15.24
2018-09-09T22:36:34.909Z,15.25
2018-09-09T22:39:03.624Z,15.23
2018-09-09T22:41:32.048Z,15.17
2018-09-09T22:44:00.521Z,15.18
2018-09-09T22:46:29.040Z,15.17
2018-09-09T22:48:57.482Z,15.17
2018-09-09T22:51:25.924Z,15.13
2018-09-09T22:56:28.070Z,14.90
2018-09-09T22:58:56.500Z,15.12
2018-09-09T23:01:24.926Z,15.12
2018-09-09T23:03:53.369Z,15.03
2018-09-09T23:06:21.799Z,15.01
2018-09-09T23:08:50.250Z,15.01
2018-09-09T23:11:18.654Z,14.96
2018-09-09T23:13:47.101Z,15.00
2018-09-09T23:16:15.507Z,15.05
2018-09-09T23:18:43.927Z,15.03
2018-09-09T23:21:12.835Z,15.06
2018-09-09T23:23:41.583Z,15.13
2018-09-09T23:26:10.186Z,15.17
2018-09-09T23:28:38.885Z,15.31
2018-09-09T23:31:07.472Z,15.34
2018-09-09T23:33:35.937Z,15.45
2018-09-09T23:36:04.345Z,15.46
2018-09-09T23:38:32.772Z,15.48
2018-09-09T23:41:01.249Z,15.46
2018-09-09T23:43:29.686Z,15.43
2018-09-09T23:45:58.085Z,15.46
2018-09-09T23:48:26.491Z,15.44
2018-09-09T23:50:55.922Z,15.41
2018-09-09T23:53:24.350Z,15.40
2018-09-09T23:55:52.786Z,15.38
2018-09-09T23:58:21.214Z,15.38
